createdAt,value
2022-08-21T00:01:44.385Z,17.65
2022-08-21T00:04:14.522Z,15.80
2022-08-21T00:06:48.646Z,20.83
2022-08-21T00:09:16.630Z,15.25
2022-08-21T00:11:44.122Z,21.45
2022-08-21T00:14:11.696Z,17.98
2022-08-21T00:16:39.664Z,20.83
2022-08-21T00:19:07.300Z,21.33
2022-08-21T00:21:35.500Z,17.92
2022-08-21T00:24:03.007Z,15.40
2022-08-21T00:26:30.328Z,16.88
2022-08-21T00:28:58.387Z,18.48
2022-08-21T00:31:26.462Z,15.20
2022-08-21T00:34:00.639Z,18.92
2022-08-21T00:36:29.136Z,26.48
2022-08-21T00:38:56.964Z,15.65
2022-08-21T00:41:36.983Z,29.88
2022-08-21T00:44:07.996Z,17.67
2022-08-21T00:46:35.968Z,19.88
2022-08-21T00:49:03.779Z,22.02
2022-08-21T00:51:42.711Z,19.45
2022-08-21T00:54:18.087Z,25.80
2022-08-21T00:56:47.930Z,18.02
2022-08-21T00:59:17.309Z,20.17
2022-08-21T01:01:44.667Z,16.77
2022-08-21T01:04:12.492Z,24.67
2022-08-21T01:06:39.901Z,22.80
2022-08-21T01:09:07.172Z,24.95
2022-08-21T01:11:34.457Z,24.33
2022-08-21T01:14:01.941Z,21.27
2022-08-21T01:16:29.279Z,27.17
2022-08-21T01:18:56.646Z,19.80
2022-08-21T01:21:28.241Z,24.02
2022-08-21T01:23:56.486Z,26.20
2022-08-21T01:26:31.212Z,23.23
2022-08-21T01:29:26.608Z,22.23
2022-08-21T01:31:53.911Z,29.70
2022-08-21T01:34:21.542Z,21.25
2022-08-21T01:36:49.222Z,28.83
2022-08-21T01:39:16.896Z,23.40
2022-08-21T01:41:44.164Z,26.80
2022-08-21T01:44:12.173Z,21.33
2022-08-21T01:46:39.486Z,15.13
2022-08-21T01:49:06.847Z,18.52
2022-08-21T01:51:34.168Z,27.92
2022-08-21T01:54:01.443Z,20.10
2022-08-21T01:56:28.982Z,31.13
2022-08-21T01:58:56.344Z,20.58
2022-08-21T02:01:23.763Z,23.02
2022-08-21T02:03:51.100Z,25.60
2022-08-21T02:06:19.062Z,26.48
2022-08-21T02:08:47.277Z,23.10
2022-08-21T02:11:14.805Z,19.63
2022-08-21T02:13:42.058Z,19.05
2022-08-21T02:16:09.621Z,17.23
2022-08-21T02:18:37.077Z,24.75
2022-08-21T02:21:04.636Z,20.35
2022-08-21T02:23:32.226Z,27.38
2022-08-21T02:26:00.181Z,30.05
2022-08-21T02:28:27.833Z,21.17
2022-08-21T02:30:55.492Z,18.20
2022-08-21T02:33:23.108Z,18.52
2022-08-21T02:35:50.917Z,26.20
2022-08-21T02:38:23.141Z,22.13
2022-08-21T02:40:51.459Z,16.75
2022-08-21T02:43:19.639Z,19.38
2022-08-21T02:45:47.130Z,24.60
2022-08-21T02:48:16.646Z,19.70
2022-08-21T02:50:49.234Z,19.42
2022-08-21T02:53:17.638Z,19.65
2022-08-21T02:55:46.038Z,26.58
2022-08-21T02:58:13.851Z,12.43
2022-08-21T03:00:41.159Z,32.35
2022-08-21T03:03:08.518Z,22.10
2022-08-21T03:05:36.178Z,21.98
2022-08-21T03:08:03.885Z,21.52
2022-08-21T03:10:32.109Z,19.83
2022-08-21T03:12:59.547Z,21.35
2022-08-21T03:15:27.432Z,32.00
2022-08-21T03:17:55.593Z,42.92
2022-08-21T03:20:24.803Z,24.83
2022-08-21T03:22:53.542Z,27.17
2022-08-21T03:25:28.323Z,25.00
2022-08-21T03:28:19.418Z,21.67
2022-08-21T03:30:47.634Z,26.20
2022-08-21T03:33:15.641Z,15.98
2022-08-21T03:35:47.776Z,28.23
2022-08-21T03:38:15.027Z,19.38
2022-08-21T03:40:43.212Z,23.33
2022-08-21T03:43:10.837Z,18.60
2022-08-21T03:45:38.657Z,26.05
2022-08-21T03:48:06.626Z,26.15
2022-08-21T03:50:40.994Z,25.30
2022-08-21T03:53:16.469Z,24.73
2022-08-21T03:55:49.407Z,23.15
2022-08-21T03:58:18.008Z,23.88
2022-08-21T04:00:50.195Z,28.98
2022-08-21T04:03:17.776Z,18.00
2022-08-21T04:05:46.860Z,34.30
2022-08-21T04:08:15.415Z,29.33
2022-08-21T04:10:43.435Z,17.35
2022-08-21T04:13:13.209Z,30.90
2022-08-21T04:15:41.794Z,23.17
2022-08-21T04:18:09.534Z,23.67
2022-08-21T04:20:37.549Z,18.38
2022-08-21T04:23:04.891Z,15.75
2022-08-21T04:25:32.789Z,31.58
2022-08-21T04:28:00.121Z,24.00
2022-08-21T04:30:28.777Z,23.00
2022-08-21T04:32:56.909Z,24.85
2022-08-21T04:35:24.954Z,23.05
2022-08-21T04:37:52.306Z,25.45
2022-08-21T04:40:20.136Z,22.10
2022-08-21T04:42:53.367Z,26.70
2022-08-21T04:45:23.645Z,24.52
2022-08-21T04:47:55.527Z,30.08
2022-08-21T04:50:29.582Z,16.48
2022-08-21T04:52:57.003Z,26.33
2022-08-21T04:55:24.674Z,25.33
2022-08-21T04:57:54.522Z,34.05
2022-08-21T05:00:21.988Z,33.47
2022-08-21T05:02:49.756Z,24.55
2022-08-21T05:05:17.174Z,30.13
2022-08-21T05:07:45.675Z,18.45
2022-08-21T05:10:14.861Z,31.38
2022-08-21T05:12:43.044Z,30.13
2022-08-21T05:15:13.273Z,34.38
2022-08-21T05:17:42.041Z,15.75
2022-08-21T05:20:10.791Z,26.88
2022-08-21T05:22:38.770Z,21.95
2022-08-21T05:25:10.202Z,22.73
2022-08-21T05:27:42.973Z,25.10
2022-08-21T05:30:11.024Z,28.25
2022-08-21T05:32:39.012Z,27.25
2022-08-21T05:35:06.911Z,27.67
2022-08-21T05:37:35.097Z,27.48
2022-08-21T05:40:20.257Z,28.50
2022-08-21T05:42:55.393Z,27.80
2022-08-21T05:45:41.309Z,22.02
2022-08-21T05:48:13.167Z,35.42
2022-08-21T05:50:40.576Z,28.05
2022-08-21T05:53:08.085Z,30.48
2022-08-21T05:55:40.294Z,34.45
2022-08-21T05:58:10.195Z,17.95
2022-08-21T06:00:37.574Z,19.55
2022-08-21T06:03:05.146Z,36.80
2022-08-21T06:05:37.399Z,27.02
2022-08-21T06:08:05.307Z,37.22
2022-08-21T06:10:32.768Z,21.45
2022-08-21T06:13:00.375Z,23.42
2022-08-21T06:15:27.786Z,36.83
2022-08-21T06:17:55.204Z,24.88
2022-08-21T06:20:22.735Z,30.08
2022-08-21T06:22:50.144Z,28.85
2022-08-21T06:25:17.659Z,25.98
2022-08-21T06:27:45.099Z,17.98
2022-08-21T06:30:12.731Z,32.83
2022-08-21T06:32:40.690Z,26.77
2022-08-21T06:35:08.317Z,33.45
2022-08-21T06:37:35.594Z,26.73
2022-08-21T06:40:04.977Z,40.15
2022-08-21T06:42:32.671Z,36.13
2022-08-21T06:44:59.951Z,29.63
2022-08-21T06:47:27.234Z,44.42
2022-08-21T06:49:54.505Z,49.53
2022-08-21T06:52:21.777Z,34.42
2022-08-21T06:54:49.185Z,46.03
2022-08-21T06:57:16.483Z,47.75
2022-08-21T06:59:43.765Z,30.15
2022-08-21T07:02:11.165Z,43.38
2022-08-21T07:04:38.419Z,53.92
2022-08-21T07:07:05.954Z,55.53
2022-08-21T07:09:34.072Z,41.47
2022-08-21T07:12:01.746Z,51.10
2022-08-21T07:14:29.086Z,41.13
2022-08-21T07:16:56.875Z,52.25
2022-08-21T07:19:24.655Z,59.05
2022-08-21T07:21:52.085Z,51.75
2022-08-21T07:24:19.538Z,75.95
2022-08-21T07:26:46.831Z,59.58
2022-08-21T07:29:14.256Z,68.57
2022-08-21T07:31:41.619Z,54.35
2022-08-21T07:34:09.367Z,51.45
2022-08-21T07:36:37.693Z,54.47
2022-08-21T07:39:06.553Z,71.75
2022-08-21T07:41:35.417Z,53.60
2022-08-21T07:44:03.111Z,58.67
2022-08-21T07:46:30.498Z,64.28
2022-08-21T07:48:57.791Z,50.92
2022-08-21T07:51:27.905Z,55.33
2022-08-21T07:53:56.510Z,59.42
2022-08-21T07:56:23.826Z,63.58
2022-08-21T07:58:51.287Z,62.33
2022-08-21T08:01:19.203Z,58.33
2022-08-21T08:03:47.287Z,54.38
2022-08-21T08:06:14.966Z,61.88
2022-08-21T08:08:43.462Z,58.83
2022-08-21T08:11:16.137Z,60.00
2022-08-21T08:13:47.814Z,66.95
2022-08-21T08:16:15.546Z,54.65
2022-08-21T08:18:43.246Z,57.00
2022-08-21T08:21:11.312Z,49.58
2022-08-21T08:23:39.729Z,56.90
2022-08-21T08:26:07.423Z,54.38
2022-08-21T08:28:34.783Z,57.75
2022-08-21T08:31:02.131Z,52.03
2022-08-21T08:33:29.457Z,64.82
2022-08-21T08:35:57.104Z,62.05
2022-08-21T08:38:25.067Z,52.63
2022-08-21T08:41:04.945Z,68.03
2022-08-21T08:43:33.359Z,57.47
2022-08-21T08:46:03.804Z,54.78
2022-08-21T08:48:58.205Z,59.35
2022-08-21T08:51:32.414Z,55.25
2022-08-21T08:54:05.651Z,51.28
2022-08-21T08:56:34.690Z,66.78
2022-08-21T08:59:08.326Z,45.80
2022-08-21T09:01:39.042Z,51.22
2022-08-21T09:04:06.741Z,60.13
2022-08-21T09:06:51.876Z,41.95
2022-08-21T09:09:25.311Z,59.15
2022-08-21T09:12:07.487Z,56.67
2022-08-21T09:14:50.114Z,62.25
2022-08-21T09:17:38.559Z,50.75
2022-08-21T09:20:30.575Z,49.47
2022-08-21T09:23:32.515Z,43.75
2022-08-21T09:26:12.986Z,48.53
2022-08-21T09:28:42.193Z,52.17
2022-08-21T09:31:17.768Z,42.97
2022-08-21T09:33:45.142Z,41.13
2022-08-21T09:36:12.491Z,32.60
2022-08-21T09:38:39.787Z,30.27
2022-08-21T09:41:09.795Z,40.55
2022-08-21T09:43:37.826Z,40.10
2022-08-21T09:46:13.555Z,40.38
2022-08-21T09:48:42.915Z,48.00
2022-08-21T09:51:21.520Z,37.33
2022-08-21T09:54:19.716Z,38.50
2022-08-21T09:57:28.302Z,33.30
2022-08-21T09:59:56.095Z,37.85
2022-08-21T10:02:29.252Z,55.35
2022-08-21T10:05:17.331Z,30.98
2022-08-21T10:07:44.741Z,45.03
2022-08-21T10:10:31.374Z,41.85
2022-08-21T10:13:07.590Z,47.28
2022-08-21T10:15:40.959Z,27.23
2022-08-21T10:18:16.842Z,47.20
2022-08-21T10:20:59.242Z,39.90
2022-08-21T10:23:37.352Z,35.13
2022-08-21T10:26:14.542Z,31.00
2022-08-21T10:29:16.363Z,26.73
2022-08-21T10:31:51.170Z,38.13
2022-08-21T10:34:38.179Z,20.13
2022-08-21T10:37:19.786Z,28.20
2022-08-21T10:40:12.084Z,31.42
2022-08-21T10:42:42.914Z,27.50
2022-08-21T10:45:19.842Z,27.33
2022-08-21T10:47:58.436Z,33.63
2022-08-21T10:50:33.029Z,34.47
2022-08-21T10:53:06.361Z,36.33
2022-08-21T10:55:44.499Z,24.95
2022-08-21T10:58:15.350Z,24.75
2022-08-21T11:01:02.159Z,38.28
2022-08-21T11:03:44.805Z,26.05
2022-08-21T11:06:20.490Z,31.60
2022-08-21T11:08:52.320Z,22.63
2022-08-21T11:11:35.770Z,27.65
2022-08-21T11:14:17.050Z,29.33
2022-08-21T11:16:59.615Z,20.42
2022-08-21T11:19:31.617Z,36.95
2022-08-21T11:22:29.851Z,24.42
2022-08-21T11:25:12.267Z,23.35
2022-08-21T11:27:46.214Z,18.30
2022-08-21T11:30:14.246Z,27.33
2022-08-21T11:32:58.710Z,28.98
2022-08-21T11:35:52.422Z,23.05
2022-08-21T11:38:36.380Z,18.77
2022-08-21T11:41:19.288Z,25.67
2022-08-21T11:43:54.391Z,27.08
2022-08-21T11:46:37.458Z,26.65
2022-08-21T11:49:19.626Z,18.85
2022-08-21T11:52:11.178Z,20.40
2022-08-21T11:54:44.420Z,27.10
2022-08-21T11:57:33.599Z,19.50
2022-08-21T12:00:12.089Z,23.00
2022-08-21T12:02:44.468Z,14.52
2022-08-21T12:05:23.041Z,17.88
2022-08-21T12:08:13.633Z,13.15
2022-08-21T12:10:48.567Z,16.90
2022-08-21T12:13:39.803Z,20.50
2022-08-21T12:16:13.631Z,20.45
2022-08-21T12:18:42.241Z,23.00
2022-08-21T12:21:20.880Z,19.42
2022-08-21T12:24:14.275Z,15.52
2022-08-21T12:26:56.270Z,21.30
2022-08-21T12:29:25.265Z,14.25
2022-08-21T12:32:11.891Z,19.90
2022-08-21T12:35:06.118Z,20.35
2022-08-21T12:37:45.388Z,23.52
2022-08-21T12:40:22.196Z,22.20
2022-08-21T12:42:58.699Z,23.40
2022-08-21T12:45:33.807Z,26.02
2022-08-21T12:48:12.508Z,22.38
2022-08-21T12:50:48.757Z,17.88
2022-08-21T12:53:29.169Z,21.05
2022-08-21T12:56:02.258Z,27.30
2022-08-21T12:58:29.917Z,17.55
2022-08-21T13:01:05.506Z,20.42
2022-08-21T13:03:34.746Z,18.33
2022-08-21T13:06:02.558Z,19.20
2022-08-21T13:08:31.227Z,17.75
2022-08-21T13:11:13.564Z,16.45
2022-08-21T13:13:46.798Z,18.10
2022-08-21T13:16:14.930Z,20.08
2022-08-21T13:18:54.826Z,15.70
2022-08-21T13:21:28.986Z,13.73
2022-08-21T13:24:31.759Z,9.88
2022-08-21T13:26:57.690Z,14.80
2022-08-21T13:29:29.265Z,17.90
2022-08-21T13:32:03.606Z,23.42
2022-08-21T13:34:34.780Z,16.52
2022-08-21T13:37:05.450Z,15.18
2022-08-21T13:39:34.129Z,16.65
2022-08-21T13:42:03.055Z,21.90
2022-08-21T13:44:44.860Z,20.33
2022-08-21T13:47:14.525Z,19.55
2022-08-21T13:49:46.476Z,13.43
2022-08-21T13:52:27.190Z,19.15
2022-08-21T13:54:55.600Z,10.75
2022-08-21T13:57:34.041Z,20.02
2022-08-21T14:00:14.856Z,7.90
2022-08-21T14:02:43.607Z,12.85
2022-08-21T14:05:44.508Z,14.95
2022-08-21T14:08:13.512Z,13.93
2022-08-21T14:10:46.063Z,15.38
2022-08-21T14:13:24.243Z,18.17
2022-08-21T14:16:02.940Z,15.30
2022-08-21T14:18:30.326Z,10.48
2022-08-21T14:21:08.044Z,21.05
2022-08-21T14:23:35.527Z,19.75
2022-08-21T14:26:04.323Z,13.45
2022-08-21T14:28:36.573Z,14.65
2022-08-21T14:31:20.464Z,14.15
2022-08-21T14:33:47.933Z,18.17
2022-08-21T14:36:15.374Z,16.08
2022-08-21T14:38:42.699Z,9.10
2022-08-21T14:41:24.828Z,11.02
2022-08-21T14:43:59.845Z,12.68
2022-08-21T14:46:35.758Z,12.13
2022-08-21T14:49:04.171Z,15.50
2022-08-21T14:51:31.842Z,21.25
2022-08-21T14:53:59.271Z,10.73
2022-08-21T14:56:26.831Z,13.93
2022-08-21T14:58:54.294Z,22.65
2022-08-21T15:01:22.254Z,13.10
2022-08-21T15:03:49.785Z,17.70
2022-08-21T15:06:18.645Z,12.20
2022-08-21T15:08:46.003Z,13.27
2022-08-21T15:11:41.247Z,12.07
2022-08-21T15:14:10.755Z,11.18
2022-08-21T15:16:38.505Z,17.38
2022-08-21T15:19:05.826Z,14.52
2022-08-21T15:21:33.222Z,9.38
2022-08-21T15:24:00.514Z,16.05
2022-08-21T15:26:27.732Z,15.75
2022-08-21T15:28:55.069Z,16.25
2022-08-21T15:31:22.318Z,12.90
2022-08-21T15:33:49.717Z,10.18
2022-08-21T15:36:17.216Z,15.30
2022-08-21T15:38:45.557Z,16.50
2022-08-21T15:41:12.919Z,18.40
2022-08-21T15:43:51.957Z,10.43
2022-08-21T15:46:19.926Z,12.52
2022-08-21T15:48:47.574Z,15.20
2022-08-21T15:51:15.311Z,12.95
2022-08-21T15:53:43.063Z,12.23
2022-08-21T15:56:19.014Z,21.63
2022-08-21T15:58:46.293Z,14.60
2022-08-21T16:01:13.696Z,12.85
2022-08-21T16:03:40.999Z,23.15
2022-08-21T16:06:08.337Z,17.42
2022-08-21T16:08:35.836Z,11.23
2022-08-21T16:11:03.134Z,11.32
2022-08-21T16:13:37.083Z,8.82
2022-08-21T16:16:05.712Z,9.00
2022-08-21T16:18:33.118Z,9.93
2022-08-21T16:21:00.358Z,7.35
2022-08-21T16:23:27.765Z,13.35
2022-08-21T16:25:55.177Z,9.23
2022-08-21T16:28:24.738Z,8.68
2022-08-21T16:30:52.028Z,6.22
2022-08-21T16:33:40.696Z,6.40
2022-08-21T16:36:08.939Z,14.90
2022-08-21T16:38:38.217Z,11.40
2022-08-21T16:41:06.992Z,11.65
2022-08-21T16:43:35.724Z,6.68
2022-08-21T16:46:02.973Z,6.00
2022-08-21T16:48:30.315Z,6.25
2022-08-21T16:50:58.541Z,6.60
2022-08-21T16:53:26.795Z,11.73
2022-08-21T16:55:54.142Z,10.80
2022-08-21T16:58:25.655Z,15.73
2022-08-21T17:00:52.920Z,11.23
2022-08-21T17:03:23.092Z,10.27
2022-08-21T17:05:50.575Z,9.88
2022-08-21T17:08:17.990Z,11.27
2022-08-21T17:10:46.992Z,10.07
2022-08-21T17:13:14.549Z,12.43
2022-08-21T17:15:43.371Z,7.53
2022-08-21T17:18:12.664Z,11.02
2022-08-21T17:20:40.298Z,12.32
2022-08-21T17:23:07.940Z,8.70
2022-08-21T17:25:35.261Z,11.70
2022-08-21T17:28:02.811Z,4.97
2022-08-21T17:30:30.195Z,9.32
2022-08-21T17:32:57.695Z,8.57
2022-08-21T17:35:25.054Z,10.98
2022-08-21T17:37:53.606Z,7.78
2022-08-21T17:40:21.055Z,11.18
2022-08-21T17:42:48.709Z,7.03
2022-08-21T17:45:17.596Z,6.72
2022-08-21T17:47:44.890Z,6.78
2022-08-21T17:50:12.877Z,8.13
2022-08-21T17:52:40.392Z,7.50
2022-08-21T17:55:07.996Z,9.80
2022-08-21T17:57:35.553Z,9.80
2022-08-21T18:00:10.130Z,12.20
2022-08-21T18:02:37.769Z,10.38
2022-08-21T18:05:06.284Z,8.52
2022-08-21T18:07:33.662Z,14.80
2022-08-21T18:10:02.066Z,12.18
2022-08-21T18:12:29.981Z,8.07
2022-08-21T18:14:57.254Z,6.82
2022-08-21T18:17:25.064Z,11.75
2022-08-21T18:19:52.321Z,14.15
2022-08-21T18:22:19.719Z,7.43
2022-08-21T18:24:47.153Z,7.68
2022-08-21T18:27:15.175Z,10.77
2022-08-21T18:29:47.049Z,19.38
2022-08-21T18:32:30.739Z,7.35
2022-08-21T18:34:59.549Z,7.68
2022-08-21T18:37:26.865Z,5.65
2022-08-21T18:39:54.200Z,12.77
2022-08-21T18:42:28.527Z,13.68
2022-08-21T18:44:59.382Z,7.65
2022-08-21T18:47:28.897Z,11.60
2022-08-21T18:49:56.550Z,9.95
2022-08-21T18:52:28.442Z,9.13
2022-08-21T18:54:56.034Z,14.65
2022-08-21T18:57:28.307Z,9.25
2022-08-21T18:59:56.168Z,8.73
2022-08-21T19:02:24.114Z,9.57
2022-08-21T19:04:52.306Z,15.43
2022-08-21T19:07:20.510Z,5.20
2022-08-21T19:10:07.586Z,9.10
2022-08-21T19:12:36.856Z,7.38
2022-08-21T19:15:07.562Z,12.82
2022-08-21T19:17:35.586Z,15.00
2022-08-21T19:20:32.757Z,14.90
2022-08-21T19:23:00.934Z,15.45
2022-08-21T19:25:33.931Z,9.43
2022-08-21T19:28:11.439Z,9.48
2022-08-21T19:31:16.426Z,14.02
2022-08-21T19:33:46.190Z,6.85
2022-08-21T19:36:18.718Z,4.78
2022-08-21T19:38:47.310Z,5.45
2022-08-21T19:41:15.311Z,13.02
2022-08-21T19:43:49.853Z,14.20
2022-08-21T19:46:24.069Z,13.95
2022-08-21T19:48:52.622Z,8.55
2022-08-21T19:51:19.956Z,11.43
2022-08-21T19:53:47.485Z,7.03
2022-08-21T19:56:18.048Z,6.22
2022-08-21T19:58:50.039Z,15.35
2022-08-21T20:01:18.407Z,11.10
2022-08-21T20:03:54.187Z,12.60
2022-08-21T20:06:22.210Z,14.10
2022-08-21T20:08:53.329Z,5.37
2022-08-21T20:11:31.510Z,12.43
2022-08-21T20:13:59.238Z,16.23
2022-08-21T20:16:28.462Z,9.18
2022-08-21T20:18:55.812Z,11.32
2022-08-21T20:21:23.582Z,18.05
2022-08-21T20:23:50.861Z,15.63
2022-08-21T20:26:19.155Z,18.83
2022-08-21T20:28:50.520Z,17.25
2022-08-21T20:31:19.694Z,14.85
2022-08-21T20:33:49.461Z,20.05
2022-08-21T20:36:18.179Z,17.48
2022-08-21T20:38:48.051Z,21.55
2022-08-21T20:41:21.484Z,18.17
2022-08-21T20:43:58.343Z,21.65
2022-08-21T20:46:26.296Z,22.52
2022-08-21T20:48:54.706Z,37.53
2022-08-21T20:51:27.483Z,22.98
2022-08-21T20:54:01.133Z,13.52
2022-08-21T20:56:32.884Z,33.75
2022-08-21T20:59:22.161Z,18.40
2022-08-21T21:01:49.415Z,26.25
2022-08-21T21:04:25.865Z,29.55
2022-08-21T21:06:58.868Z,16.17
2022-08-21T21:09:34.746Z,26.13
2022-08-21T21:12:09.525Z,21.00
2022-08-21T21:14:46.127Z,27.90
2022-08-21T21:17:30.572Z,32.25
2022-08-21T21:20:02.398Z,19.60
2022-08-21T21:22:34.678Z,25.52
2022-08-21T21:25:39.747Z,23.52
2022-08-21T21:28:19.936Z,26.92
2022-08-21T21:30:57.672Z,32.35
2022-08-21T21:33:25.319Z,19.13
2022-08-21T21:35:55.395Z,27.13
2022-08-21T21:38:51.844Z,22.58
2022-08-21T21:41:19.479Z,25.30
2022-08-21T21:44:13.115Z,23.63
2022-08-21T21:47:18.795Z,33.15
2022-08-21T21:50:03.140Z,19.95
2022-08-21T21:52:42.518Z,26.02
2022-08-21T21:55:45.606Z,26.63
2022-08-21T21:58:24.806Z,29.90
2022-08-21T22:00:57.719Z,19.27
2022-08-21T22:03:32.204Z,27.35
2022-08-21T22:06:57.137Z,21.58
2022-08-21T22:09:47.026Z,27.08
2022-08-21T22:12:26.415Z,23.55
2022-08-21T22:14:55.246Z,28.98
2022-08-21T22:17:47.653Z,23.20
2022-08-21T22:20:22.883Z,15.52
2022-08-21T22:22:53.096Z,39.88
2022-08-21T22:25:29.050Z,28.80
2022-08-21T22:28:10.618Z,22.77
2022-08-21T22:30:45.316Z,31.45
2022-08-21T22:33:19.972Z,27.90
2022-08-21T22:35:51.665Z,30.30
2022-08-21T22:38:29.862Z,38.65
2022-08-21T22:41:23.309Z,32.33
2022-08-21T22:44:01.610Z,31.90
2022-08-21T22:46:36.553Z,34.83
2022-08-21T22:49:25.232Z,28.98
2022-08-21T22:51:55.980Z,38.72
2022-08-21T22:54:35.078Z,39.85
2022-08-21T22:57:05.153Z,28.48
2022-08-21T22:59:35.286Z,27.98
2022-08-21T23:02:02.491Z,31.98
2022-08-21T23:04:29.896Z,31.33
2022-08-21T23:06:59.940Z,35.45
2022-08-21T23:09:28.382Z,25.13
2022-08-21T23:11:58.675Z,23.13
2022-08-21T23:14:27.831Z,37.28
2022-08-21T23:17:01.474Z,42.53
2022-08-21T23:19:54.093Z,31.15
2022-08-21T23:22:43.237Z,19.10
2022-08-21T23:25:28.889Z,40.75
2022-08-21T23:28:06.180Z,26.13
2022-08-21T23:30:51.839Z,39.88
2022-08-21T23:33:24.897Z,32.80
2022-08-21T23:36:29.846Z,43.20
2022-08-21T23:39:15.837Z,34.42
2022-08-21T23:42:06.230Z,34.95
2022-08-21T23:45:01.149Z,35.10
2022-08-21T23:47:41.535Z,49.78
2022-08-21T23:50:26.735Z,26.70
2022-08-21T23:53:14.374Z,38.63
2022-08-21T23:55:54.634Z,33.72
2022-08-21T23:58:26.342Z,41.47
